.
WxDataArchive / Data Records for 2012-03-09
2012-03-08 March 2012 2012-03-10

Data Records for Friday, 09 March 2012

Time	Temp	Chill	HIndex	Humid	Dewpt	 Wind 	HiWind	WindDir	Rain 	Barom 
-----	----	-----	------	-----	-----	------	------	-------	-----	----- 
00:00	35.0	35.0	35.0	63	23.7	1	3	225	0.00	30.215 
00:05	34.9	34.9	34.9	63	23.6	0	3	225	0.00	30.215 
00:10	34.7	34.7	34.7	63	23.4	1	4	225	0.00	30.215 
00:15	34.7	34.7	34.7	63	23.4	1	4	248	0.00	30.213 
00:20	34.6	34.6	34.6	64	23.7	1	4	248	0.00	30.213 
00:25	34.4	34.4	34.4	64	23.5	1	4	270	0.00	30.213 
00:30	34.4	34.4	34.4	64	23.5	1	4	248	0.00	30.221 
00:35	34.4	34.4	34.4	65	23.9	1	4	248	0.00	30.221 
00:40	34.3	34.3	34.3	65	23.8	1	3	270	0.00	30.221 
00:45	34.1	34.1	34.1	65	23.6	1	2	270	0.00	30.219 
00:50	34.1	34.1	34.1	65	23.6	1	4	248	0.00	30.219 
00:55	34.0	34.0	34.0	65	23.5	1	3	248	0.00	30.219 
01:00	34.0	34.0	34.0	65	23.5	2	4	248	0.00	30.218 
01:05	33.8	33.8	33.8	65	23.3	1	4	248	0.00	30.218 
01:10	33.8	33.8	33.8	66	23.7	1	4	248	0.00	30.218 
01:15	33.7	33.7	33.7	66	23.6	1	4	248	0.00	30.217 
01:20	33.7	33.7	33.7	66	23.6	1	4	248	0.00	30.217 
01:25	33.7	33.7	33.7	66	23.6	2	4	248	0.00	30.217 
01:30	33.7	33.7	33.7	67	23.9	1	4	270	0.00	30.216 
01:35	33.7	33.7	33.7	67	23.9	1	3	248	0.00	30.216 
01:40	33.5	33.5	33.5	67	23.7	2	4	248	0.00	30.216 
01:45	33.7	33.7	33.7	67	23.9	2	5	248	0.00	30.214 
01:50	33.5	33.5	33.5	67	23.7	2	5	248	0.00	30.214 
01:55	33.5	33.5	33.5	67	23.7	2	5	248	0.00	30.214 
02:00	33.7	33.7	33.7	67	23.9	2	6	225	0.00	30.213 
02:05	33.7	33.7	33.7	67	23.9	2	4	248	0.00	30.213 
02:10	33.8	33.8	33.8	66	23.7	2	5	248	0.00	30.213 
02:15	34.0	34.0	34.0	66	23.9	3	5	248	0.00	30.216 
02:20	34.0	34.0	34.0	66	23.9	2	4	292	0.00	30.216 
02:25	34.0	34.0	34.0	66	23.9	2	6	225	0.00	30.216 
02:30	34.1	34.1	34.1	66	23.9	3	7	248	0.00	30.210 
02:35	34.1	34.1	34.1	66	23.9	2	5	248	0.00	30.210 
02:40	34.1	34.1	34.1	66	23.9	2	5	270	0.00	30.210 
02:45	34.3	34.3	34.3	66	24.1	2	5	248	0.00	30.203 
02:50	34.3	34.3	34.3	66	24.1	2	5	270	0.00	30.203 
02:55	34.4	34.4	34.4	65	23.9	3	6	270	0.00	30.203 
03:00	34.6	34.6	34.6	65	24.1	1	5	270	0.00	30.199 
03:05	34.6	34.6	34.6	65	24.1	2	4	270	0.00	30.199 
03:10	34.9	34.9	34.9	64	24.0	2	5	248	0.00	30.199 
03:15	35.0	35.0	35.0	64	24.1	3	7	248	0.00	30.196 
03:20	35.2	35.2	35.2	64	24.3	2	5	248	0.00	30.196 
03:25	35.3	35.3	35.3	63	24.0	3	5	270	0.00	30.196 
03:30	35.5	35.5	35.5	62	23.8	3	10	248	0.00	30.183 
03:35	35.6	35.6	35.6	62	23.9	3	7	248	0.00	30.183 
03:40	35.6	35.6	35.6	62	23.9	2	5	248	0.00	30.183 
03:45	35.6	35.6	35.6	62	23.9	3	9	248	0.00	30.185 
03:50	35.6	35.6	35.6	62	23.9	3	6	248	0.00	30.185 
03:55	35.6	35.6	35.6	62	23.9	2	9	248	0.00	30.185 
04:00	35.8	32.5	35.8	62	24.1	4	9	270	0.00	30.188 
04:05	35.8	35.8	35.8	62	24.1	3	6	248	0.00	30.188 
04:10	35.6	35.6	35.6	62	23.9	3	9	248	0.00	30.188 
04:15	35.6	35.6	35.6	62	23.9	2	6	292	0.00	30.197 
04:20	35.6	35.6	35.6	62	23.9	2	6	248	0.00	30.197 
04:25	35.6	35.6	35.6	63	24.3	3	7	248	0.00	30.197 
04:30	35.8	35.8	35.8	63	24.5	3	7	248	0.00	30.198 
04:35	35.8	35.8	35.8	63	24.5	2	7	248	0.00	30.198 
04:40	35.6	35.6	35.6	63	24.3	3	7	248	0.00	30.198 
04:45	35.6	35.6	35.6	63	24.3	3	10	248	0.00	30.200 
04:50	35.6	35.6	35.6	63	24.3	3	6	248	0.00	30.200 
04:55	35.5	35.5	35.5	63	24.2	3	4	248	0.00	30.200 
05:00	35.5	35.5	35.5	63	24.2	2	5	248	0.00	30.203 
05:05	35.5	35.5	35.5	63	24.2	3	9	248	0.00	30.203 
05:10	35.5	35.5	35.5	63	24.2	2	5	248	0.00	30.203 
05:15	35.3	35.3	35.3	64	24.4	2	5	248	0.00	30.209 
05:20	35.3	35.3	35.3	64	24.4	3	5	248	0.00	30.209 
05:25	35.2	35.2	35.2	64	24.3	2	5	248	0.00	30.209 
05:30	35.2	35.2	35.2	64	24.3	3	5	248	0.00	30.212 
05:35	35.2	35.2	35.2	64	24.3	2	5	248	0.00	30.212 
05:40	35.0	35.0	35.0	64	24.1	2	5	270	0.00	30.212 
05:45	35.0	35.0	35.0	64	24.1	2	4	270	0.00	30.217 
05:50	35.0	35.0	35.0	64	24.1	3	5	270	0.00	30.217 
05:55	35.0	35.0	35.0	64	24.1	2	5	270	0.00	30.217 
06:00	35.0	35.0	35.0	64	24.1	3	5	270	0.00	30.217 
06:05	35.0	35.0	35.0	64	24.1	2	5	270	0.00	30.217 
06:10	35.0	35.0	35.0	64	24.1	3	7	248	0.00	30.217 
06:15	35.0	35.0	35.0	64	24.1	3	6	248	0.00	30.226 
06:20	35.0	35.0	35.0	64	24.1	3	6	270	0.00	30.226 
06:25	35.2	35.2	35.2	63	23.9	3	9	270	0.00	30.226 
06:30	35.3	31.9	35.3	64	24.4	4	10	270	0.00	30.244 
06:35	35.3	31.9	35.3	66	25.1	4	11	315	0.00	30.244 
06:40	34.7	34.7	34.7	69	25.6	3	9	315	0.00	30.244 
06:45	34.4	34.4	34.4	69	25.3	3	6	270	0.00	30.261 
06:50	34.3	34.3	34.3	69	25.2	2	6	315	0.00	30.261 
06:55	34.1	30.5	34.1	66	23.9	4	9	315	0.00	30.261 
07:00	34.0	30.4	34.0	64	23.1	4	12	315	0.00	30.269 
07:05	34.0	34.0	34.0	64	23.1	3	10	292	0.00	30.269 
07:10	33.8	33.8	33.8	63	22.6	3	7	270	0.00	30.269 
07:15	33.7	33.7	33.7	63	22.5	3	10	270	0.00	30.285 
07:20	33.5	33.5	33.5	63	22.3	2	5	338	0.00	30.285 
07:25	33.4	33.4	33.4	62	21.8	2	7	292	0.00	30.285 
07:30	32.9	32.9	32.9	59	20.2	3	9	338	0.00	30.299 
07:35	32.5	32.5	32.5	58	19.4	3	10	315	0.00	30.299 
07:40	32.4	32.4	32.4	57	18.9	3	7	270	0.00	30.299 
07:45	32.4	32.4	32.4	55	18.1	3	10	292	0.00	30.305 
07:50	32.4	32.4	32.4	54	17.6	3	9	292	0.00	30.305 
07:55	32.4	28.5	32.4	54	17.6	4	9	292	0.00	30.305 
08:00	32.4	32.4	32.4	54	17.6	2	6	270	0.00	30.313 
08:05	32.5	28.7	32.5	53	17.3	4	10	292	0.00	30.313 
08:10	32.5	32.5	32.5	54	17.7	2	10	292	0.00	30.313 
08:15	32.7	32.7	32.7	53	17.5	2	6	292	0.00	30.324 
08:20	32.8	32.8	32.8	53	17.6	2	6	292	0.00	30.324 
08:25	32.9	32.9	32.9	53	17.7	3	6	270	0.00	30.324 
08:30	32.9	32.9	32.9	51	16.8	3	8	270	0.00	30.336 
08:35	33.1	33.1	33.1	51	17.0	3	9	315	0.00	30.336 
08:40	33.2	33.2	33.2	50	16.6	3	11	315	0.00	30.336 
08:45	33.4	33.4	33.4	51	17.2	3	10	292	0.00	30.345 
08:50	33.5	29.8	33.5	50	16.9	4	7	270	0.00	30.345 
08:55	33.5	29.8	33.5	49	16.4	4	10	292	0.00	30.345 
09:00	33.7	33.7	33.7	50	17.1	3	9	315	0.00	30.351 
09:05	33.8	33.8	33.8	50	17.2	3	11	270	0.00	30.351 
09:10	34.1	34.1	34.1	50	17.4	3	6	315	0.00	30.351 
09:15	34.1	30.5	34.1	48	16.5	4	10	315	0.00	30.356 
09:20	34.3	34.3	34.3	47	16.2	3	9	292	0.00	30.356 
09:25	34.4	29.9	34.4	48	16.8	5	11	270	0.00	30.356 
09:30	34.6	31.1	34.6	47	16.5	4	9	270	0.00	30.368 
09:35	34.4	29.9	34.4	48	16.8	5	10	270	0.00	30.368 
09:40	34.7	31.2	34.7	49	17.5	4	11	292	0.00	30.368 
09:45	34.9	31.4	34.9	48	17.2	4	10	292	0.00	30.371 
09:50	35.0	31.5	35.0	48	17.3	4	7	270	0.00	30.371 
09:55	35.0	30.6	35.0	48	17.3	5	12	315	0.00	30.371 
10:00	35.2	31.8	35.2	48	17.5	4	9	338	0.00	30.378 
10:05	35.6	35.6	35.6	48	17.9	3	8	270	0.00	30.378 
10:10	36.0	36.0	36.0	48	18.2	2	6	270	0.00	30.378 
10:15	36.3	36.3	36.3	46	17.5	3	10	270	0.00	30.378 
10:20	36.3	36.3	36.3	46	17.5	3	10	270	0.00	30.378 
10:25	36.2	32.9	36.2	46	17.4	4	12	270	0.00	30.378 
10:30	36.0	32.7	36.0	45	16.7	4	11	338	0.00	30.386 
10:35	36.3	33.0	36.3	45	17.0	4	9	292	0.00	30.386 
10:40	36.0	32.7	36.0	44	16.2	4	13	270	0.00	30.386 
10:45	36.3	33.0	36.3	46	17.5	4	9	270	0.00	30.395 
10:50	36.6	33.4	36.6	46	17.8	4	12	338	0.00	30.395 
10:55	36.3	33.0	36.3	46	17.5	4	10	292	0.00	30.395 
11:00	36.3	33.0	36.3	46	17.5	4	11	292	0.00	30.406 
11:05	36.3	36.3	36.3	48	18.5	3	7	270	0.00	30.406 
11:10	36.6	36.6	36.6	49	19.3	3	6	315	0.00	30.406 
11:15	37.3	37.3	37.3	48	19.4	3	10	248	0.00	30.418 
11:20	36.9	33.7	36.9	45	17.6	4	10	292	0.00	30.418 
11:25	36.6	33.4	36.6	44	16.8	4	11	315	0.00	30.418 
11:30	36.9	36.9	36.9	46	18.1	3	7	292	0.00	30.425 
11:35	37.0	33.9	37.0	44	17.1	4	10	270	0.00	30.425 
11:40	37.5	37.5	37.5	44	17.6	3	7	270	0.00	30.425 
11:45	37.9	37.9	37.9	46	19.0	2	5	315	0.00	30.427 
11:50	38.8	38.8	38.8	47	20.3	2	7	270	0.00	30.427 
11:55	38.6	38.6	38.6	44	18.6	2	9	338	0.00	30.427 
12:00	38.5	38.5	38.5	43	18.0	2	5	315	0.00	30.433 
12:05	38.0	38.0	38.0	44	18.0	3	6	270	0.00	30.433 
12:10	38.6	38.6	38.6	46	19.6	2	4	248	0.00	30.433 
12:15	37.8	34.8	37.8	40	15.7	4	12	270	0.00	30.441 
12:20	37.6	37.6	37.6	41	16.1	3	7	292	0.00	30.441 
12:25	37.9	37.9	37.9	42	16.9	3	10	270	0.00	30.441 
12:30	38.6	35.7	38.6	42	17.5	4	8	270	0.00	30.442 
12:35	38.6	38.6	38.6	41	17.0	3	9	270	0.00	30.442 
12:40	38.6	38.6	38.6	41	17.0	3	7	270	0.00	30.442 
12:45	38.9	36.0	38.9	42	17.8	4	7	270	0.00	30.443 
12:50	38.0	38.0	38.0	42	17.0	3	7	292	0.00	30.443 
12:55	37.9	37.9	37.9	43	17.4	3	7	292	0.00	30.443 
13:00	38.0	38.0	38.0	43	17.5	3	7	315	0.00	30.441 
13:05	38.8	35.9	38.8	44	18.8	4	9	292	0.00	30.441 
13:10	38.6	38.6	38.6	42	17.5	3	7	315	0.00	30.441 
13:15	38.3	35.4	38.3	41	16.7	4	9	270	0.00	30.442 
13:20	38.2	35.2	38.2	39	15.4	4	7	315	0.00	30.442 
13:25	38.3	38.3	38.3	41	16.7	3	7	292	0.00	30.442 
13:30	38.3	35.4	38.3	42	17.2	4	8	292	0.00	30.445 
13:35	38.5	35.6	38.5	40	16.3	4	9	248	0.00	30.445 
13:40	38.5	35.6	38.5	39	15.7	4	7	270	0.00	30.445 
13:45	38.2	35.2	38.2	42	17.2	4	9	292	0.00	30.445 
13:50	38.0	38.0	38.0	41	16.4	3	7	270	0.00	30.445 
13:55	38.0	35.0	38.0	39	15.3	4	9	270	0.00	30.445 
14:00	38.3	35.4	38.3	39	15.5	4	9	270	0.00	30.443 
14:05	38.3	35.4	38.3	37	14.3	4	11	315	0.00	30.443 
14:10	38.3	38.3	38.3	38	14.9	3	6	315	0.00	30.443 
14:15	38.5	38.5	38.5	39	15.7	3	6	270	0.00	30.444 
14:20	38.5	38.5	38.5	39	15.7	3	7	315	0.00	30.444 
14:25	38.0	38.0	38.0	41	16.4	3	6	338	0.00	30.444 
14:30	38.6	38.6	38.6	42	17.5	2	7	315	0.00	30.449 
14:35	38.6	38.6	38.6	43	18.1	3	7	270	0.00	30.449 
14:40	38.8	38.8	38.8	42	17.7	2	6	270	0.00	30.449 
14:45	38.6	38.6	38.6	40	16.4	3	7	270	0.00	30.454 
14:50	38.0	38.0	38.0	42	17.0	3	7	315	0.00	30.454 
14:55	37.6	34.5	37.6	41	16.1	4	8	315	0.00	30.454 
15:00	37.8	37.8	37.8	41	16.2	3	10	315	0.00	30.458 
15:05	37.8	37.8	37.8	40	15.7	3	10	315	0.00	30.458 
15:10	37.8	37.8	37.8	41	16.2	3	8	292	0.00	30.458 
15:15	37.6	37.6	37.6	40	15.5	3	9	292	0.00	30.461 
15:20	37.6	37.6	37.6	39	14.9	3	9	270	0.00	30.461 
15:25	37.5	37.5	37.5	39	14.8	3	7	338	0.00	30.461 
15:30	37.3	37.3	37.3	39	14.6	3	7	270	0.00	30.468 
15:35	37.2	37.2	37.2	41	15.7	3	6	292	0.00	30.468 
15:40	37.3	37.3	37.3	41	15.8	2	4	292	0.00	30.468 
15:45	37.3	37.3	37.3	41	15.8	3	11	338	0.00	30.470 
15:50	37.5	37.5	37.5	40	15.4	2	7	248	0.00	30.470 
15:55	37.5	37.5	37.5	40	15.4	3	5	315	0.00	30.470 
16:00	37.2	37.2	37.2	38	14.0	3	7	315	0.00	30.474 
16:05	37.2	37.2	37.2	38	14.0	3	6	248	0.00	30.474 
16:10	37.0	37.0	37.0	38	13.8	3	9	292	0.00	30.474 
16:15	37.0	37.0	37.0	39	14.4	2	6	270	0.00	30.475 
16:20	37.0	33.9	37.0	39	14.4	4	10	270	0.00	30.475 
16:25	36.8	36.8	36.8	41	15.3	2	9	338	0.00	30.475 
16:30	36.9	36.9	36.9	41	15.4	2	5	270	0.00	30.483 
16:35	37.0	37.0	37.0	41	15.5	2	6	338	0.00	30.483 
16:40	36.9	36.9	36.9	38	13.7	3	9	270	0.00	30.483 
16:45	36.6	36.6	36.6	37	12.8	2	6	315	0.00	30.487 
16:50	36.5	36.5	36.5	38	13.3	2	6	292	0.00	30.487 
16:55	36.2	36.2	36.2	38	13.1	2	7	248	0.00	30.487 
17:00	36.3	36.3	36.3	39	13.7	2	5	248	0.00	30.483 
17:05	36.2	36.2	36.2	39	13.7	3	6	270	0.00	30.483 
17:10	36.2	36.2	36.2	37	12.5	2	6	270	0.00	30.483 
17:15	36.0	36.0	36.0	36	11.7	3	9	292	0.00	30.489 
17:20	35.9	35.9	35.9	36	11.6	2	6	270	0.00	30.489 
17:25	35.6	35.6	35.6	37	11.9	2	5	292	0.00	30.489 
17:30	35.3	35.3	35.3	37	11.7	3	7	315	0.00	30.491 
17:35	35.2	35.2	35.2	36	11.0	2	4	270	0.00	30.491 
17:40	35.0	35.0	35.0	37	11.4	3	7	270	0.00	30.491 
17:45	34.7	34.7	34.7	37	11.1	1	4	292	0.00	30.494 
17:50	34.6	34.6	34.6	38	11.6	1	5	338	0.00	30.494 
17:55	34.4	34.4	34.4	39	12.0	2	7	270	0.00	30.494 
18:00	34.3	34.3	34.3	40	12.5	2	5	292	0.00	30.496 
18:05	34.0	34.0	34.0	40	12.2	2	6	270	0.00	30.496 
18:10	33.7	33.7	33.7	40	12.0	2	5	315	0.00	30.496 
18:15	33.5	33.5	33.5	39	11.2	1	4	338	0.00	30.503 
18:20	33.4	33.4	33.4	38	10.6	2	4	338	0.00	30.503 
18:25	33.1	33.1	33.1	38	10.3	2	7	338	0.00	30.503 
18:30	32.9	32.9	32.9	39	10.7	1	5	292	0.00	30.509 
18:35	32.7	32.7	32.7	41	11.6	0	3	315	0.00	30.509 
18:40	32.5	32.5	32.5	40	10.9	1	5	270	0.00	30.509 
18:45	32.4	32.4	32.4	40	10.8	1	5	270	0.00	30.511 
18:50	32.2	32.2	32.2	41	11.2	1	5	292	0.00	30.511 
18:55	32.1	32.1	32.1	41	11.1	1	5	270	0.00	30.511 
19:00	31.9	31.9	31.9	42	11.4	1	4	270	0.00	30.517 
19:05	31.6	31.6	31.6	42	11.2	1	3	315	0.00	30.517 
19:10	31.5	31.5	31.5	43	11.6	0	2	292	0.00	30.517 
19:15	31.3	31.3	31.3	43	11.4	1	4	292	0.00	30.528 
19:20	31.2	31.2	31.2	44	11.9	1	4	270	0.00	30.528 
19:25	31.0	31.0	31.0	43	11.2	1	3	315	0.00	30.528 
19:30	30.9	30.9	30.9	43	11.1	1	5	338	0.00	30.527 
19:35	30.7	30.7	30.7	44	11.4	1	3	338	0.00	30.527 
19:40	30.6	30.6	30.6	45	11.8	0	1	292	0.00	30.527 
19:45	30.4	30.4	30.4	46	12.1	0	2	292	0.00	30.530 
19:50	30.3	30.3	30.3	46	12.0	1	3	270	0.00	30.530 
19:55	30.3	30.3	30.3	47	12.5	0	2	292	0.00	30.530 
20:00	30.1	30.1	30.1	48	12.8	0	2	292	0.00	30.537 
20:05	30.0	30.0	30.0	48	12.7	0	3	292	0.00	30.537 
20:10	29.8	29.8	29.8	49	13.0	0	1	292	0.00	30.537 
20:15	29.7	29.7	29.7	49	12.9	1	4	315	0.00	30.538 
20:20	29.7	29.7	29.7	49	12.9	1	4	0	0.00	30.538 
20:25	29.5	29.5	29.5	49	12.7	0	2	315	0.00	30.538 
20:30	29.4	29.4	29.4	49	12.6	0	2	315	0.00	30.546 
20:35	29.3	29.3	29.3	49	12.5	0	2	315	0.00	30.546 
20:40	29.1	29.1	29.1	49	12.4	0	3	292	0.00	30.546 
20:45	29.1	29.1	29.1	49	12.4	0	3	292	0.00	30.546 
20:50	29.0	29.0	29.0	49	12.3	0	4	270	0.00	30.546 
20:55	28.8	28.8	28.8	50	12.5	0	2	270	0.00	30.546 
21:00	28.8	28.8	28.8	50	12.5	0	1	270	0.00	30.546 
21:05	28.7	28.7	28.7	51	12.9	0	1	270	0.00	30.546 
21:10	28.5	28.5	28.5	52	13.1	0	3	22	0.00	30.546 
21:15	28.4	28.4	28.4	53	13.5	0	1	22	0.00	30.541 
21:20	28.2	28.2	28.2	53	13.3	0	1	22	0.00	30.541 
21:25	28.1	28.1	28.1	54	13.6	0	1	22	0.00	30.541 
21:30	28.1	28.1	28.1	54	13.6	0	2	292	0.00	30.545 
21:35	27.9	27.9	27.9	55	13.9	0	1	292	0.00	30.545 
21:40	27.8	27.8	27.8	55	13.8	0	2	292	0.00	30.545 
21:45	27.6	27.6	27.6	55	13.6	0	1	292	0.00	30.545 
21:50	27.6	27.6	27.6	56	14.0	0	1	292	0.00	30.545 
21:55	27.5	27.5	27.5	56	13.9	0	3	292	0.00	30.545 
22:00	27.5	27.5	27.5	56	13.9	0	1	45	0.00	30.547 
22:05	27.3	27.3	27.3	56	13.7	0	2	270	0.00	30.547 
22:10	27.2	27.2	27.2	57	14.0	0	1	270	0.00	30.547 
22:15	27.0	27.0	27.0	57	13.8	0	1	270	0.00	30.543 
22:20	27.0	27.0	27.0	57	13.8	0	1	270	0.00	30.543 
22:25	26.9	26.9	26.9	57	13.7	0	0	---	0.00	30.543 
22:30	26.7	26.7	26.7	58	13.9	0	1	270	0.00	30.534 
22:35	26.7	26.7	26.7	58	13.9	0	1	315	0.00	30.534 
22:40	26.6	26.6	26.6	58	13.8	0	1	315	0.00	30.534 
22:45	26.6	26.6	26.6	59	14.2	0	1	315	0.00	30.541 
22:50	26.4	26.4	26.4	59	14.0	0	0	---	0.00	30.541 
22:55	26.3	26.3	26.3	59	13.9	0	1	315	0.00	30.541 
23:00	26.3	26.3	26.3	60	14.3	0	1	315	0.00	30.539 
23:05	26.1	26.1	26.1	60	14.1	0	1	315	0.00	30.539 
23:10	26.1	26.1	26.1	61	14.5	0	2	315	0.00	30.539 
23:15	26.0	26.0	26.0	61	14.4	0	0	---	0.00	30.539 
23:20	26.0	26.0	26.0	61	14.4	0	0	---	0.00	30.539 
23:25	25.8	25.8	25.8	62	14.6	0	1	315	0.00	30.539 
23:30	25.7	25.7	25.7	62	14.5	0	0	---	0.00	30.544 
23:35	25.7	25.7	25.7	62	14.5	0	0	---	0.00	30.544 
23:40	25.6	25.6	25.6	62	14.4	0	0	---	0.00	30.544 
23:45	25.4	25.4	25.4	62	14.2	0	0	---	0.00	30.542 
23:50	25.3	25.3	25.3	62	14.1	0	0	---	0.00	30.542 
23:55	25.3	25.3	25.3	63	14.5	0	0	---	0.00	30.542 

CoCoRaHS
IN-AL-39
A2 Web Hosting
Creative Commons License
GoDaddy
search engine by freefind advanced

loaded 2018-11-18 11:20:24 • last modified 2010-11-18 10:43:29
Privacy PolicyDisclaimer
• wx.awcolley.com is powered by PmWiki v.2002016 •
• all content (unless otherwise noted) © 2018 A W Colley